createdAt,value
2019-01-17T13:35:45.416Z,99052.34
2019-01-17T13:38:15.094Z,99060.89
2019-01-17T13:40:44.766Z,99051.03
2019-01-17T13:43:14.408Z,99059.47
2019-01-17T13:45:44.047Z,99065.70
2019-01-17T13:48:13.598Z,99062.26
2019-01-17T13:50:43.152Z,99063.02
2019-01-17T13:53:12.794Z,99062.52
2019-01-17T13:55:42.457Z,99073.61
2019-01-17T13:58:11.925Z,99061.44
2019-01-17T14:00:41.716Z,99066.16
2019-01-17T14:03:11.336Z,99067.46
2019-01-17T14:05:41.139Z,99076.42
2019-01-17T14:08:10.865Z,99084.59
2019-01-17T14:10:42.012Z,99092.55
2019-01-17T14:13:11.641Z,99089.59
2019-01-17T14:15:41.307Z,99085.37
2019-01-17T14:18:11.049Z,99089.66
2019-01-17T14:20:40.675Z,99094.75
2019-01-17T14:23:10.230Z,99102.64
2019-01-17T14:25:40.079Z,99101.31
2019-01-17T14:28:09.473Z,99096.48
2019-01-17T14:30:39.095Z,99119.63
2019-01-17T14:33:08.663Z,99108.38
2019-01-17T14:35:38.370Z,99115.25
2019-01-17T14:38:07.914Z,99120.75
2019-01-17T14:40:37.551Z,99120.58
2019-01-17T14:43:07.215Z,99143.12
2019-01-17T14:45:36.794Z,99201.07
2019-01-17T14:48:06.513Z,99207.80
2019-01-17T14:50:36.081Z,99207.97
2019-01-17T14:53:05.637Z,99207.61
2019-01-17T14:55:35.506Z,99201.49
2019-01-17T14:58:05.187Z,99194.86
2019-01-17T15:00:35.246Z,99192.73
2019-01-17T15:03:04.878Z,99193.78
2019-01-17T15:05:34.558Z,99196.35
2019-01-17T15:08:05.281Z,99204.83
2019-01-17T15:10:37.604Z,99210.75
2019-01-17T15:13:07.140Z,99223.03
2019-01-17T15:15:36.754Z,99233.13
2019-01-17T15:18:06.986Z,99241.84
2019-01-17T15:20:36.851Z,99241.84
2019-01-17T15:23:07.609Z,99246.14
2019-01-17T15:25:37.255Z,99255.02
2019-01-17T15:28:06.906Z,99255.83
2019-01-17T15:30:36.605Z,99277.86
2019-01-17T15:33:06.135Z,99277.58
2019-01-17T15:35:35.730Z,99293.13
2019-01-17T15:38:05.433Z,99294.10
2019-01-17T15:40:35.091Z,99294.10
2019-01-17T15:43:04.725Z,99301.70
2019-01-17T15:45:34.304Z,99291.53
2019-01-17T15:48:04.030Z,99292.36
2019-01-17T15:50:33.691Z,99311.50
2019-01-17T15:53:03.367Z,99314.08
2019-01-17T15:55:32.986Z,99314.08
2019-01-17T15:58:02.671Z,99321.98
2019-01-17T16:00:33.182Z,99321.98
2019-01-17T16:03:02.929Z,99327.32
2019-01-17T16:05:32.576Z,99333.97
2019-01-17T16:08:02.478Z,99333.97
2019-01-17T16:10:32.029Z,99336.25
2019-01-17T16:13:01.623Z,99342.28
2019-01-17T16:15:31.347Z,99343.03
2019-01-17T16:18:00.947Z,99346.38
2019-01-17T16:20:31.667Z,99346.38
2019-01-17T16:23:01.335Z,99354.13
2019-01-17T16:25:31.082Z,99356.91
2019-01-17T16:28:01.249Z,99356.91
2019-01-17T16:30:32.683Z,99359.53
2019-01-17T16:33:02.200Z,99359.53
2019-01-17T16:35:31.991Z,99373.45
2019-01-17T16:38:01.641Z,99389.01
2019-01-17T16:40:31.337Z,99395.19
2019-01-17T16:43:01.307Z,99406.22
2019-01-17T16:45:35.407Z,99429.87
2019-01-17T16:48:03.355Z,99431.25
2019-01-17T16:50:33.607Z,99439.16
2019-01-17T16:53:03.331Z,99439.16
2019-01-17T16:55:33.100Z,99451.43
2019-01-17T16:58:02.921Z,99456.33
2019-01-17T17:00:44.202Z,99462.32
2019-01-17T17:03:13.876Z,99462.32
2019-01-17T17:05:43.611Z,99466.16
2019-01-17T17:08:14.069Z,99476.25
2019-01-17T17:10:43.684Z,99482.57
2019-01-17T17:13:13.452Z,99493.73
2019-01-17T17:15:43.195Z,99494.47
2019-01-17T17:18:13.072Z,99495.20
2019-01-17T17:20:42.864Z,99495.20
2019-01-17T17:23:14.532Z,99508.04
2019-01-17T17:25:44.963Z,99519.14
2019-01-17T17:28:14.674Z,99523.13
2019-01-17T17:30:44.378Z,99533.33
2019-01-17T17:33:13.974Z,99533.33
2019-01-17T17:35:43.649Z,99543.80
2019-01-17T17:38:13.337Z,99556.86
2019-01-17T17:40:43.223Z,99556.86
2019-01-17T17:43:12.897Z,99566.90
2019-01-17T17:45:42.663Z,99562.64
2019-01-17T17:48:12.292Z,99583.50
2019-01-17T17:50:42.065Z,99589.68
2019-01-17T17:53:11.716Z,99590.78
2019-01-17T17:55:41.305Z,99590.78
2019-01-17T17:58:10.916Z,99590.78
2019-01-17T18:00:51.372Z,99588.48
2019-01-17T18:03:21.083Z,99594.86
2019-01-17T18:05:50.776Z,99618.80
2019-01-17T18:08:20.427Z,99625.27
2019-01-17T18:10:51.096Z,99625.27
2019-01-17T18:13:20.747Z,99619.52
2019-01-17T18:15:50.450Z,99619.52
2019-01-17T18:18:19.993Z,99619.04
2019-01-17T18:20:49.715Z,99628.18
2019-01-17T18:23:19.198Z,99630.82
2019-01-17T18:25:48.945Z,99631.67
2019-01-17T18:28:18.521Z,99636.70
2019-01-17T18:30:48.374Z,99643.91
2019-01-17T18:33:18.294Z,99657.37
2019-01-17T18:35:47.928Z,99660.27
2019-01-17T18:38:17.587Z,99663.13
2019-01-17T18:40:47.291Z,99659.77
2019-01-17T18:43:16.982Z,99661.55
2019-01-17T18:45:46.787Z,99669.70
2019-01-17T18:48:16.626Z,99676.27
2019-01-17T18:50:46.391Z,99678.07
2019-01-17T18:53:15.927Z,99686.50
2019-01-17T18:55:45.568Z,99697.39
2019-01-17T18:58:15.639Z,99695.87
2019-01-17T19:00:45.740Z,99694.06
2019-01-17T19:03:15.377Z,99712.28
2019-01-17T19:05:45.030Z,99710.23
2019-01-17T19:08:14.495Z,99712.94
2019-01-17T19:10:44.246Z,99706.33
2019-01-17T19:13:13.890Z,99712.77
2019-01-17T19:15:43.467Z,99706.83
2019-01-17T19:18:13.119Z,99707.66
2019-01-17T19:20:43.965Z,99705.80
2019-01-17T19:23:13.575Z,99708.57
2019-01-17T19:25:43.236Z,99710.25
2019-01-17T19:28:12.898Z,99705.02
2019-01-17T19:30:42.639Z,99705.22
2019-01-17T19:33:12.467Z,99713.02
2019-01-17T19:35:42.320Z,99716.12
2019-01-17T19:38:11.975Z,99716.95
2019-01-17T19:40:42.885Z,99724.64
2019-01-17T19:43:12.665Z,99734.06
2019-01-17T19:45:42.470Z,99733.56
2019-01-17T19:48:12.061Z,99730.00
2019-01-17T19:50:43.379Z,99727.92
2019-01-17T19:53:13.012Z,99737.73
2019-01-17T19:55:42.720Z,99734.84
2019-01-17T19:58:12.346Z,99727.59
2019-01-17T20:00:42.085Z,99734.72
2019-01-17T20:03:11.738Z,99732.16
2019-01-17T20:05:41.633Z,99728.00
2019-01-17T20:08:11.377Z,99725.11
2019-01-17T20:10:41.026Z,99733.71
2019-01-17T20:13:10.941Z,99737.11
2019-01-17T20:15:40.546Z,99725.42
2019-01-17T20:18:10.041Z,99724.70
2019-01-17T20:20:39.693Z,99733.28
2019-01-17T20:23:09.430Z,99740.86
2019-01-17T20:25:39.147Z,99733.70
2019-01-17T20:28:08.829Z,99743.55
2019-01-17T20:30:38.401Z,99746.77
2019-01-17T20:33:09.192Z,99740.74
2019-01-17T20:35:38.749Z,99733.63
2019-01-17T20:38:08.519Z,99730.33
2019-01-17T20:40:38.170Z,99729.02
2019-01-17T20:43:07.847Z,99722.52
2019-01-17T20:45:37.655Z,99716.77
2019-01-17T20:48:07.358Z,99733.02
2019-01-17T20:50:37.028Z,99729.22
2019-01-17T20:53:06.583Z,99735.84
2019-01-17T20:55:36.189Z,99748.39
2019-01-17T20:58:06.689Z,99754.72
2019-01-17T21:00:43.811Z,99757.39
2019-01-17T21:03:15.142Z,99772.84
2019-01-17T21:05:45.710Z,99772.62
2019-01-17T21:08:15.440Z,99776.75
2019-01-17T21:10:45.144Z,99775.70
2019-01-17T21:13:14.683Z,99778.11
2019-01-17T21:15:44.354Z,99778.44
2019-01-17T21:18:14.009Z,99783.38
2019-01-17T21:20:43.881Z,99788.46
2019-01-17T21:23:13.526Z,99789.82
2019-01-17T21:25:43.078Z,99802.74
2019-01-17T21:28:12.646Z,99805.16
2019-01-17T21:30:43.597Z,99801.91
2019-01-17T21:33:13.352Z,99811.30
2019-01-17T21:35:43.306Z,99816.66
2019-01-17T21:38:13.007Z,99821.22
2019-01-17T21:40:43.821Z,99824.88
2019-01-17T21:43:13.517Z,99826.73
2019-01-17T21:45:43.193Z,99829.84
2019-01-17T21:48:12.805Z,99840.19
2019-01-17T21:50:44.379Z,99832.61
2019-01-17T21:53:13.996Z,99825.63
2019-01-17T21:55:43.713Z,99837.33
2019-01-17T21:58:13.442Z,99832.95
2019-01-17T22:00:43.200Z,99846.49
2019-01-17T22:03:12.830Z,99842.28
2019-01-17T22:05:42.634Z,99846.12
2019-01-17T22:08:12.266Z,99852.27
2019-01-17T22:10:41.840Z,99854.64
2019-01-17T22:13:11.480Z,99859.13
2019-01-17T22:15:41.164Z,99868.87
2019-01-17T22:18:10.724Z,99866.81
2019-01-17T22:20:40.479Z,99873.80
2019-01-17T22:23:10.115Z,99883.30
2019-01-17T22:25:39.725Z,99893.92
2019-01-17T22:28:09.266Z,99890.18
2019-01-17T22:30:39.199Z,99903.47
2019-01-17T22:33:10.240Z,99905.78
2019-01-17T22:35:39.881Z,99909.02
2019-01-17T22:38:09.427Z,99915.52
2019-01-17T22:40:39.217Z,99915.53
2019-01-17T22:43:08.723Z,99920.80
2019-01-17T22:45:38.287Z,99921.33
2019-01-17T22:48:07.837Z,99931.69
2019-01-17T22:50:37.402Z,99936.08
2019-01-17T22:53:07.019Z,99946.34
2019-01-17T22:55:36.605Z,99955.14
2019-01-17T22:58:06.130Z,99957.55
2019-01-17T23:00:51.826Z,99957.98
2019-01-17T23:03:26.747Z,99959.31
2019-01-17T23:05:56.325Z,99973.38
2019-01-17T23:08:25.788Z,99974.80
2019-01-17T23:10:55.348Z,99973.05
2019-01-17T23:13:24.768Z,99980.21
2019-01-17T23:15:54.530Z,99979.90
2019-01-17T23:18:23.952Z,99984.15
2019-01-17T23:20:53.408Z,99988.05
2019-01-17T23:23:22.995Z,99995.75
2019-01-17T23:25:52.529Z,100005.80
2019-01-17T23:28:22.113Z,100000.58
2019-01-17T23:30:51.627Z,100015.16
2019-01-17T23:33:21.186Z,100019.11
2019-01-17T23:35:50.897Z,100027.39
2019-01-17T23:38:20.432Z,100019.32
2019-01-17T23:40:49.999Z,100029.00
2019-01-17T23:43:19.633Z,100032.70
2019-01-17T23:45:49.157Z,100039.86
2019-01-17T23:48:18.869Z,100041.08
2019-01-17T23:50:49.674Z,100050.80
2019-01-17T23:53:19.185Z,100055.04
2019-01-17T23:55:48.746Z,100053.59
2019-01-17T23:58:18.304Z,100061.39
